createdAt,value
2022-12-01T00:00:28.300Z,64.55
2022-12-01T00:01:28.336Z,60.45
2022-12-01T00:02:28.361Z,53.00
2022-12-01T00:03:28.310Z,62.95
2022-12-01T00:04:28.267Z,57.94
2022-12-01T00:05:28.261Z,52.35
2022-12-01T00:06:28.269Z,55.77
2022-12-01T00:07:28.301Z,56.96
2022-12-01T00:08:28.237Z,51.25
2022-12-01T00:09:28.225Z,47.68
2022-12-01T00:10:28.217Z,47.37
2022-12-01T00:11:28.235Z,44.22
2022-12-01T00:12:28.199Z,50.28
2022-12-01T00:13:28.196Z,56.83
2022-12-01T00:14:28.184Z,59.39
2022-12-01T00:15:28.175Z,54.33
2022-12-01T00:16:28.242Z,59.50
2022-12-01T00:17:28.159Z,49.06
2022-12-01T00:18:28.151Z,45.08
2022-12-01T00:19:28.148Z,46.49
2022-12-01T00:20:28.140Z,56.52
2022-12-01T00:21:28.165Z,56.65
2022-12-01T00:22:28.129Z,58.18
2022-12-01T00:23:28.113Z,55.82
2022-12-01T00:24:28.105Z,43.62
2022-12-01T00:25:28.099Z,48.74
2022-12-01T00:26:28.118Z,61.94
2022-12-01T00:27:28.088Z,54.78
2022-12-01T00:28:28.076Z,56.20
2022-12-01T00:29:28.065Z,52.11
2022-12-01T00:30:28.062Z,48.40
2022-12-01T00:31:28.141Z,56.99
2022-12-01T00:32:28.045Z,59.87
2022-12-01T00:33:28.038Z,57.71
2022-12-01T00:34:28.029Z,62.81
2022-12-01T00:35:28.020Z,61.03
2022-12-01T00:36:28.040Z,61.00
2022-12-01T00:37:28.004Z,52.18
2022-12-01T00:38:27.993Z,61.15
2022-12-01T00:39:27.986Z,61.04
2022-12-01T00:40:27.981Z,50.34
2022-12-01T00:41:28.000Z,42.41
2022-12-01T00:42:27.969Z,48.83
2022-12-01T00:43:27.964Z,44.57
2022-12-01T00:44:27.953Z,50.57
2022-12-01T00:45:27.941Z,49.80
2022-12-01T00:46:28.045Z,42.80
2022-12-01T00:47:27.930Z,54.10
2022-12-01T00:48:27.918Z,46.88
2022-12-01T00:49:27.916Z,55.71
2022-12-01T00:50:27.904Z,54.12
2022-12-01T00:51:27.921Z,57.41
2022-12-01T00:52:27.886Z,56.74
2022-12-01T00:53:27.878Z,53.09
2022-12-01T00:54:27.868Z,45.01
2022-12-01T00:55:27.864Z,48.68
2022-12-01T00:56:27.883Z,51.18
2022-12-01T00:57:27.853Z,62.45
2022-12-01T00:58:27.838Z,54.43
2022-12-01T00:59:27.836Z,53.59
2022-12-01T01:00:27.833Z,44.81
2022-12-01T01:01:27.915Z,50.66
2022-12-01T01:02:27.889Z,56.59
2022-12-01T01:03:27.809Z,52.76
2022-12-01T01:04:27.798Z,59.35
2022-12-01T01:05:27.788Z,55.58
2022-12-01T01:06:27.804Z,62.59
2022-12-01T01:07:27.836Z,46.61
2022-12-01T01:08:27.766Z,49.36
2022-12-01T01:09:27.754Z,53.81
2022-12-01T01:10:27.747Z,58.02
2022-12-01T01:11:27.770Z,58.42
2022-12-01T01:12:27.734Z,56.16
2022-12-01T01:13:27.725Z,55.65
2022-12-01T01:14:27.715Z,59.45
2022-12-01T01:15:27.711Z,54.88
2022-12-01T01:16:27.754Z,53.74
2022-12-01T01:17:27.693Z,61.89
2022-12-01T01:18:27.683Z,53.62
2022-12-01T01:19:27.680Z,54.07
2022-12-01T01:20:27.670Z,48.68
2022-12-01T01:21:27.694Z,61.52
2022-12-01T01:22:27.650Z,56.76
2022-12-01T01:23:27.644Z,58.61
2022-12-01T01:24:27.651Z,54.15
2022-12-01T01:25:27.635Z,54.79
2022-12-01T01:26:27.644Z,45.69
2022-12-01T01:27:27.608Z,51.36
2022-12-01T01:28:28.602Z,54.94
2022-12-01T01:29:27.595Z,57.58
2022-12-01T01:30:27.616Z,43.36
2022-12-01T01:31:27.601Z,42.65
2022-12-01T01:32:27.567Z,49.26
2022-12-01T01:33:27.563Z,51.22
2022-12-01T01:34:27.554Z,60.91
2022-12-01T01:35:27.545Z,47.46
2022-12-01T01:36:27.560Z,54.10
2022-12-01T01:37:27.529Z,59.66
2022-12-01T01:38:27.523Z,63.51
2022-12-01T01:39:27.513Z,58.76
2022-12-01T01:40:27.507Z,46.32
2022-12-01T01:41:27.519Z,57.39
2022-12-01T01:42:27.491Z,50.57
2022-12-01T01:43:27.484Z,50.93
2022-12-01T01:44:27.473Z,51.93
2022-12-01T01:45:27.468Z,46.60
2022-12-01T01:46:27.564Z,53.62
2022-12-01T01:47:27.460Z,56.62
2022-12-01T01:48:27.442Z,52.46
2022-12-01T01:49:27.439Z,54.66
2022-12-01T01:50:27.427Z,62.30
2022-12-01T01:51:27.447Z,42.25
2022-12-01T01:52:27.415Z,58.76
2022-12-01T01:53:27.403Z,60.78
2022-12-01T01:54:27.395Z,55.55
2022-12-01T01:55:27.387Z,47.49
2022-12-01T01:56:27.405Z,49.15
2022-12-01T01:57:27.369Z,47.29
2022-12-01T01:58:27.358Z,59.47
2022-12-01T01:59:27.352Z,58.44
2022-12-01T02:00:27.344Z,55.36
2022-12-01T02:01:27.405Z,55.76
2022-12-01T02:02:27.404Z,52.51
2022-12-01T02:03:27.315Z,52.61
2022-12-01T02:04:27.319Z,63.94
2022-12-01T02:05:27.302Z,55.83
2022-12-01T02:06:27.296Z,46.87
2022-12-01T02:07:27.336Z,51.44
2022-12-01T02:08:27.282Z,57.89
2022-12-01T02:09:27.279Z,59.13
2022-12-01T02:10:27.268Z,53.03
2022-12-01T02:11:27.261Z,62.46
2022-12-01T02:12:27.276Z,51.87
2022-12-01T02:13:27.244Z,54.74
2022-12-01T02:14:27.236Z,61.30
2022-12-01T02:15:27.227Z,57.11
2022-12-01T02:16:27.237Z,46.81
2022-12-01T02:17:27.235Z,50.41
2022-12-01T02:18:27.203Z,55.15
2022-12-01T02:19:27.193Z,51.06
2022-12-01T02:20:27.187Z,50.92
2022-12-01T02:21:27.176Z,61.84
2022-12-01T02:22:27.199Z,54.21
2022-12-01T02:23:27.167Z,58.88
2022-12-01T02:24:27.155Z,53.94
2022-12-01T02:25:27.147Z,58.09
2022-12-01T02:26:27.146Z,62.38
2022-12-01T02:27:27.156Z,53.35
2022-12-01T02:28:27.126Z,57.38
2022-12-01T02:29:27.115Z,61.93
2022-12-01T02:30:27.159Z,55.51
2022-12-01T02:31:27.103Z,56.20
2022-12-01T02:32:27.118Z,57.78
2022-12-01T02:33:27.085Z,61.61
2022-12-01T02:34:27.075Z,65.96
2022-12-01T02:35:27.067Z,53.45
2022-12-01T02:36:27.056Z,52.33
2022-12-01T02:37:27.078Z,53.73
2022-12-01T02:38:27.044Z,47.56
2022-12-01T02:39:27.037Z,51.34
2022-12-01T02:40:27.025Z,62.56
2022-12-01T02:41:27.019Z,60.59
2022-12-01T02:42:27.033Z,53.31
2022-12-01T02:43:27.000Z,49.84
2022-12-01T02:44:26.994Z,44.69
2022-12-01T02:45:26.983Z,43.46
2022-12-01T02:46:27.061Z,61.67
2022-12-01T02:47:26.995Z,51.95
2022-12-01T02:48:26.965Z,58.15
2022-12-01T02:49:26.958Z,49.94
2022-12-01T02:50:26.945Z,46.56
2022-12-01T02:51:26.935Z,59.31
2022-12-01T02:52:26.962Z,56.92
2022-12-01T02:53:26.926Z,58.05
2022-12-01T02:54:26.918Z,63.92
2022-12-01T02:55:26.911Z,56.29
2022-12-01T02:56:26.906Z,57.66
2022-12-01T02:57:26.923Z,58.33
2022-12-01T02:58:26.891Z,53.07
2022-12-01T02:59:26.880Z,59.97
2022-12-01T03:00:26.870Z,45.10
2022-12-01T03:01:26.908Z,58.48
2022-12-01T03:02:26.941Z,45.06
2022-12-01T03:03:26.845Z,54.09
2022-12-01T03:04:26.839Z,59.53
2022-12-01T03:05:26.836Z,60.80
2022-12-01T03:06:26.824Z,55.09
2022-12-01T03:07:26.864Z,44.71
2022-12-01T03:08:26.808Z,54.19
2022-12-01T03:09:26.796Z,43.88
2022-12-01T03:10:26.783Z,56.82
2022-12-01T03:11:27.780Z,54.60
2022-12-01T03:12:26.798Z,60.30
2022-12-01T03:13:26.767Z,54.96
2022-12-01T03:14:26.761Z,55.85
2022-12-01T03:15:26.749Z,52.51
2022-12-01T03:16:26.841Z,57.21
2022-12-01T03:17:26.737Z,52.57
2022-12-01T03:18:26.747Z,61.46
2022-12-01T03:19:26.717Z,59.16
2022-12-01T03:20:26.706Z,53.68
2022-12-01T03:21:26.694Z,58.70
2022-12-01T03:22:26.691Z,58.84
2022-12-01T03:23:26.709Z,50.78
2022-12-01T03:24:26.677Z,47.61
2022-12-01T03:25:26.669Z,49.70
2022-12-01T03:26:26.663Z,56.93
2022-12-01T03:27:26.655Z,53.01
2022-12-01T03:28:26.671Z,55.76
2022-12-01T03:29:26.635Z,61.81
2022-12-01T03:30:26.627Z,56.61
2022-12-01T03:31:26.719Z,63.10
2022-12-01T03:32:26.609Z,57.18
2022-12-01T03:33:26.629Z,56.59
2022-12-01T03:34:26.595Z,60.02
2022-12-01T03:35:26.596Z,62.98
2022-12-01T03:36:26.583Z,57.37
2022-12-01T03:37:26.572Z,66.45
2022-12-01T03:38:26.623Z,61.00
2022-12-01T03:39:26.560Z,58.99
2022-12-01T03:40:26.551Z,63.05
2022-12-01T03:41:26.543Z,58.39
2022-12-01T03:42:26.531Z,54.86
2022-12-01T03:43:26.553Z,63.02
2022-12-01T03:44:26.519Z,58.95
2022-12-01T03:45:26.513Z,53.63
2022-12-01T03:46:26.538Z,56.58
2022-12-01T03:47:26.500Z,58.64
2022-12-01T03:48:26.515Z,56.60
2022-12-01T03:49:26.484Z,66.90
2022-12-01T03:50:26.474Z,53.49
2022-12-01T03:51:26.463Z,53.32
2022-12-01T03:52:26.443Z,50.05
2022-12-01T03:53:27.476Z,55.58
2022-12-01T03:54:26.441Z,57.79
2022-12-01T03:55:26.431Z,60.61
2022-12-01T03:56:26.426Z,59.95
2022-12-01T03:57:26.409Z,56.97
2022-12-01T03:58:26.436Z,58.09
2022-12-01T03:59:26.400Z,59.89
2022-12-01T04:00:26.401Z,60.18
2022-12-01T04:01:26.468Z,61.16
2022-12-01T04:02:26.404Z,58.00
2022-12-01T04:03:26.391Z,54.74
2022-12-01T04:04:26.360Z,61.24
2022-12-01T04:05:26.350Z,58.89
2022-12-01T04:06:26.345Z,56.20
2022-12-01T04:07:26.377Z,60.59
2022-12-01T04:08:26.353Z,61.15
2022-12-01T04:09:26.314Z,57.36
2022-12-01T04:10:26.307Z,62.27
2022-12-01T04:11:32.163Z,67.33
2022-12-01T04:12:28.299Z,62.05
2022-12-01T04:13:26.314Z,61.66
2022-12-01T04:14:26.286Z,60.45
2022-12-01T04:15:26.276Z,68.36
2022-12-01T04:16:26.308Z,62.29
2022-12-01T04:17:26.263Z,64.19
2022-12-01T04:18:26.286Z,60.45
2022-12-01T04:19:26.244Z,62.44
2022-12-01T04:20:26.239Z,62.21
2022-12-01T04:21:26.225Z,62.02
2022-12-01T04:22:26.221Z,60.27
2022-12-01T04:23:26.247Z,58.98
2022-12-01T04:24:26.204Z,63.25
2022-12-01T04:25:26.191Z,59.27
2022-12-01T04:26:26.187Z,57.80
2022-12-01T04:27:26.178Z,61.28
2022-12-01T04:28:26.168Z,63.79
2022-12-01T04:29:26.188Z,60.65
2022-12-01T04:30:26.154Z,65.17
2022-12-01T04:31:26.178Z,66.18
2022-12-01T04:32:26.140Z,63.97
2022-12-01T04:33:26.131Z,68.47
2022-12-01T04:34:26.150Z,61.50
2022-12-01T04:35:26.112Z,64.17
2022-12-01T04:36:26.108Z,61.23
2022-12-01T04:37:26.097Z,68.26
2022-12-01T04:38:30.302Z,57.68
2022-12-01T04:39:27.102Z,58.70
2022-12-01T04:40:26.074Z,60.46
2022-12-01T04:41:26.078Z,66.96
2022-12-01T04:42:26.056Z,68.34
2022-12-01T04:43:26.051Z,62.70
2022-12-01T04:44:28.949Z,62.57
2022-12-01T04:45:28.032Z,63.22
2022-12-01T04:46:26.090Z,61.51
2022-12-01T04:47:26.020Z,61.87
2022-12-01T04:48:26.008Z,62.89
2022-12-01T04:49:26.027Z,61.67
2022-12-01T04:50:25.992Z,64.43
2022-12-01T04:51:25.987Z,65.41
2022-12-01T04:52:27.475Z,62.87
2022-12-01T04:53:25.967Z,61.03
2022-12-01T04:54:25.991Z,65.94
2022-12-01T04:55:25.960Z,66.24
2022-12-01T04:56:25.948Z,64.81
2022-12-01T04:57:25.942Z,62.50
2022-12-01T04:58:25.928Z,62.28
2022-12-01T04:59:25.947Z,66.70
2022-12-01T05:00:25.948Z,62.69
2022-12-01T05:01:25.942Z,64.69
2022-12-01T05:02:25.956Z,63.14
2022-12-01T05:03:25.899Z,62.68
2022-12-01T05:04:25.904Z,64.79
2022-12-01T05:05:25.866Z,63.25
2022-12-01T05:06:26.870Z,56.63
2022-12-01T05:07:25.889Z,61.28
2022-12-01T05:08:25.850Z,62.33
2022-12-01T05:09:25.865Z,64.32
2022-12-01T05:10:25.832Z,62.88
2022-12-01T05:11:25.827Z,65.73
2022-12-01T05:12:25.818Z,65.09
2022-12-01T05:13:25.806Z,66.20
2022-12-01T05:14:25.825Z,66.55
2022-12-01T05:15:25.794Z,62.43
2022-12-01T05:16:25.858Z,65.28
2022-12-01T05:17:25.777Z,64.78
2022-12-01T05:18:25.844Z,66.61
2022-12-01T05:19:25.791Z,63.83
2022-12-01T05:20:25.753Z,64.36
2022-12-01T05:21:25.751Z,66.71
2022-12-01T05:22:42.864Z,63.58
2022-12-01T05:23:27.730Z,66.78
2022-12-01T05:24:25.754Z,65.82
2022-12-01T05:25:25.717Z,61.31
2022-12-01T05:26:25.709Z,67.07
2022-12-01T05:27:25.810Z,67.79
2022-12-01T05:28:25.697Z,67.03
2022-12-01T05:29:25.706Z,68.06
2022-12-01T05:30:28.786Z,62.19
2022-12-01T05:31:26.695Z,65.15
2022-12-01T05:32:25.663Z,63.02
2022-12-01T05:33:25.654Z,64.57
2022-12-01T05:34:25.668Z,64.94
2022-12-01T05:35:25.633Z,66.69
2022-12-01T05:36:25.637Z,68.44
2022-12-01T05:37:25.617Z,64.13
2022-12-01T05:38:25.617Z,67.04
2022-12-01T05:39:25.635Z,64.08
2022-12-01T05:40:25.592Z,66.54
2022-12-01T05:41:25.585Z,64.48
2022-12-01T05:42:25.581Z,66.06
2022-12-01T05:43:29.314Z,64.41
2022-12-01T05:44:26.595Z,66.70
2022-12-01T05:45:25.686Z,68.01
2022-12-01T05:46:25.614Z,64.86
2022-12-01T05:47:25.539Z,64.96
2022-12-01T05:48:25.544Z,64.89
2022-12-01T05:49:25.561Z,68.10
2022-12-01T05:50:25.519Z,63.08
2022-12-01T05:51:25.512Z,64.36
2022-12-01T05:52:25.502Z,64.75
2022-12-01T05:53:25.494Z,65.01
2022-12-01T05:54:25.483Z,65.38
2022-12-01T05:55:25.501Z,67.35
2022-12-01T05:56:25.470Z,70.39
2022-12-01T05:57:25.455Z,69.09
2022-12-01T05:58:25.451Z,63.78
2022-12-01T05:59:25.443Z,66.99
2022-12-01T06:00:25.469Z,61.98
2022-12-01T06:01:25.431Z,66.78
2022-12-01T06:02:25.470Z,69.81
2022-12-01T06:03:25.408Z,67.09
2022-12-01T06:04:25.432Z,64.26
2022-12-01T06:05:25.420Z,63.49
2022-12-01T06:06:25.385Z,62.28
2022-12-01T06:07:25.427Z,66.98
2022-12-01T06:08:25.370Z,66.80
2022-12-01T06:09:25.364Z,65.06
2022-12-01T06:10:25.380Z,65.64
2022-12-01T06:11:25.350Z,65.61
2022-12-01T06:12:25.336Z,66.52
2022-12-01T06:13:25.328Z,63.52
2022-12-01T06:14:25.321Z,63.51
2022-12-01T06:15:25.340Z,67.02
2022-12-01T06:16:25.340Z,63.89
2022-12-01T06:17:25.315Z,63.92
2022-12-01T06:18:25.288Z,64.15
2022-12-01T06:19:25.279Z,67.33
2022-12-01T06:20:25.295Z,65.41
2022-12-01T06:21:25.267Z,65.19
2022-12-01T06:22:25.258Z,64.00
2022-12-01T06:23:30.009Z,63.44
2022-12-01T06:24:27.239Z,65.17
2022-12-01T06:25:25.259Z,66.07
2022-12-01T06:26:25.227Z,66.89
2022-12-01T06:27:25.219Z,68.62
2022-12-01T06:28:25.220Z,65.70
2022-12-01T06:29:25.201Z,65.12
2022-12-01T06:30:25.221Z,67.28
2022-12-01T06:31:25.238Z,66.97
2022-12-01T06:32:25.176Z,63.64
2022-12-01T06:33:25.168Z,67.48
2022-12-01T06:34:25.163Z,69.61
2022-12-01T06:35:25.175Z,66.06
2022-12-01T06:36:25.147Z,66.14
2022-12-01T06:37:25.140Z,62.79
2022-12-01T06:38:25.139Z,66.30
2022-12-01T06:39:25.127Z,65.24
2022-12-01T06:40:25.153Z,67.15
2022-12-01T06:41:25.130Z,65.50
2022-12-01T06:42:25.104Z,66.62
2022-12-01T06:43:25.091Z,65.94
2022-12-01T06:44:25.082Z,63.59
2022-12-01T06:45:25.118Z,66.89
2022-12-01T06:46:25.160Z,66.51
2022-12-01T06:47:25.058Z,68.77
2022-12-01T06:48:25.058Z,67.81
2022-12-01T06:49:25.044Z,66.73
2022-12-01T06:50:25.041Z,66.20
2022-12-01T06:51:25.054Z,64.14
2022-12-01T06:52:25.022Z,64.02
2022-12-01T06:53:25.011Z,67.56
2022-12-01T06:54:25.002Z,69.91
2022-12-01T06:55:25.024Z,66.52
2022-12-01T06:56:24.988Z,63.50
2022-12-01T06:57:24.978Z,66.02
2022-12-01T06:58:24.973Z,66.69
2022-12-01T06:59:24.965Z,66.89
2022-12-01T07:00:24.956Z,61.72
2022-12-01T07:01:25.049Z,64.40
2022-12-01T07:02:25.013Z,64.53
2022-12-01T07:03:24.943Z,67.04
2022-12-01T07:04:24.923Z,66.42
2022-12-01T07:05:24.918Z,65.44
2022-12-01T07:06:24.937Z,69.05
2022-12-01T07:07:24.951Z,65.77
2022-12-01T07:08:24.894Z,66.34
2022-12-01T07:09:24.886Z,66.26
2022-12-01T07:10:24.883Z,63.84
2022-12-01T07:11:24.885Z,64.56
2022-12-01T07:12:25.864Z,63.47
2022-12-01T07:13:27.663Z,60.11
2022-12-01T07:14:25.848Z,67.90
2022-12-01T07:15:24.848Z,65.76
2022-12-01T07:16:24.971Z,64.10
2022-12-01T07:17:24.835Z,62.18
2022-12-01T07:18:24.824Z,66.70
2022-12-01T07:19:24.825Z,65.12
2022-12-01T07:20:24.809Z,67.53
2022-12-01T07:21:24.831Z,65.09
2022-12-01T07:22:29.456Z,65.36
2022-12-01T07:23:26.782Z,65.38
2022-12-01T07:24:24.774Z,62.80
2022-12-01T07:25:24.783Z,68.11
2022-12-01T07:26:24.785Z,68.81
2022-12-01T07:27:24.752Z,67.77
2022-12-01T07:28:24.741Z,64.33
2022-12-01T07:29:24.740Z,66.08
2022-12-01T07:30:28.460Z,66.43
2022-12-01T07:31:26.780Z,65.86
2022-12-01T07:32:24.714Z,68.09
2022-12-01T07:33:24.706Z,70.11
2022-12-01T07:34:24.698Z,66.97
2022-12-01T07:35:24.686Z,67.84
2022-12-01T07:36:24.709Z,65.78
2022-12-01T07:37:24.677Z,66.68
2022-12-01T07:38:24.661Z,69.56
2022-12-01T07:39:24.651Z,66.23
2022-12-01T07:40:24.647Z,66.99
2022-12-01T07:41:24.664Z,68.46
2022-12-01T07:42:24.633Z,65.79
2022-12-01T07:43:24.626Z,67.78
2022-12-01T07:44:24.617Z,67.16
2022-12-01T07:45:24.610Z,63.27
2022-12-01T07:46:24.697Z,67.42
2022-12-01T07:47:24.591Z,66.61
2022-12-01T07:48:24.583Z,64.77
2022-12-01T07:49:24.573Z,62.02
2022-12-01T07:50:24.567Z,62.64
2022-12-01T07:51:24.560Z,64.95
2022-12-01T07:52:24.574Z,66.01
2022-12-01T07:53:24.540Z,67.75
2022-12-01T07:54:24.540Z,67.22
2022-12-01T07:55:24.522Z,66.95
2022-12-01T07:56:24.517Z,68.08
2022-12-01T07:57:24.537Z,67.71
2022-12-01T07:58:24.508Z,65.33
2022-12-01T07:59:24.499Z,64.21
2022-12-01T08:00:24.489Z,65.46
2022-12-01T08:01:24.527Z,64.43
2022-12-01T08:02:24.518Z,63.66
2022-12-01T08:03:24.466Z,66.47
2022-12-01T08:04:24.454Z,62.58
2022-12-01T08:05:24.448Z,66.08
2022-12-01T08:06:24.438Z,64.78
2022-12-01T08:07:29.581Z,65.18
2022-12-01T08:08:26.422Z,64.64
2022-12-01T08:09:24.418Z,68.99
2022-12-01T08:10:24.406Z,64.82
2022-12-01T08:11:24.402Z,67.00
2022-12-01T08:12:24.422Z,66.33
2022-12-01T08:13:24.384Z,65.73
2022-12-01T08:14:24.377Z,64.99
2022-12-01T08:15:24.416Z,60.45
2022-12-01T08:16:24.356Z,63.97
2022-12-01T08:17:24.380Z,66.11
2022-12-01T08:18:24.346Z,65.55
2022-12-01T08:19:24.340Z,64.50
2022-12-01T08:20:24.368Z,64.63
2022-12-01T08:21:24.326Z,62.34
2022-12-01T08:22:24.339Z,66.84
2022-12-01T08:23:24.304Z,61.34
2022-12-01T08:24:24.295Z,64.33
2022-12-01T08:25:24.290Z,65.09
2022-12-01T08:26:24.280Z,66.11
2022-12-01T08:27:24.298Z,64.25
2022-12-01T08:28:24.266Z,63.03
2022-12-01T08:29:24.261Z,64.01
2022-12-01T08:30:24.284Z,66.34
2022-12-01T08:31:24.302Z,64.74
2022-12-01T08:32:24.263Z,66.11
2022-12-01T08:33:24.231Z,64.67
2022-12-01T08:34:24.216Z,64.09
2022-12-01T08:35:24.211Z,63.42
2022-12-01T08:36:24.191Z,64.87
2022-12-01T08:37:25.223Z,67.40
2022-12-01T08:38:24.181Z,63.74
2022-12-01T08:39:25.189Z,63.49
2022-12-01T08:40:24.240Z,64.84
2022-12-01T08:41:24.165Z,65.14
2022-12-01T08:42:24.184Z,63.58
2022-12-01T08:44:26.151Z,63.62
2022-12-01T08:45:24.134Z,61.43
2022-12-01T08:46:24.321Z,68.32
2022-12-01T08:47:24.150Z,66.19
2022-12-01T08:48:24.108Z,65.54
2022-12-01T08:49:24.112Z,66.52
2022-12-01T08:50:24.175Z,64.58
2022-12-01T08:51:24.088Z,62.77
2022-12-01T08:52:24.101Z,63.09
2022-12-01T08:53:24.070Z,66.30
2022-12-01T08:54:24.338Z,64.80
2022-12-01T08:55:24.054Z,65.95
2022-12-01T08:56:24.047Z,64.60
2022-12-01T08:57:24.069Z,67.17
2022-12-01T08:58:24.029Z,66.81
2022-12-01T08:59:24.022Z,67.77
2022-12-01T09:00:24.017Z,63.66
2022-12-01T09:01:24.082Z,66.51
2022-12-01T09:02:24.132Z,66.15
2022-12-01T09:03:24.030Z,63.96
2022-12-01T09:04:23.982Z,65.78
2022-12-01T09:05:23.974Z,65.25
2022-12-01T09:06:23.966Z,68.02
2022-12-01T09:07:26.654Z,65.26
2022-12-01T09:08:24.957Z,66.48
2022-12-01T09:09:23.945Z,69.05
2022-12-01T09:10:23.943Z,64.22
2022-12-01T09:11:23.930Z,61.20
2022-12-01T09:12:23.954Z,61.97
2022-12-01T09:13:23.912Z,60.58
2022-12-01T09:14:23.905Z,65.92
2022-12-01T09:15:23.898Z,64.56
2022-12-01T09:16:23.957Z,63.59
2022-12-01T09:17:23.901Z,64.59
2022-12-01T09:18:23.873Z,67.08
2022-12-01T09:19:25.184Z,66.13
2022-12-01T09:20:24.854Z,64.71
2022-12-01T09:21:23.849Z,63.79
2022-12-01T09:22:23.869Z,64.22
2022-12-01T09:23:23.829Z,66.37
2022-12-01T09:24:23.824Z,59.71
2022-12-01T09:25:23.813Z,65.16
2022-12-01T09:26:23.811Z,65.00
2022-12-01T09:27:23.819Z,63.18
2022-12-01T09:28:23.799Z,67.43
2022-12-01T09:29:23.782Z,61.79
2022-12-01T09:30:23.789Z,67.98
2022-12-01T09:31:23.866Z,64.27
2022-12-01T09:32:23.781Z,62.52
2022-12-01T09:33:23.748Z,64.85
2022-12-01T09:34:23.742Z,68.07
2022-12-01T09:35:23.846Z,62.15
2022-12-01T09:36:23.735Z,63.91
2022-12-01T09:37:23.747Z,66.93
2022-12-01T09:38:23.709Z,67.47
2022-12-01T09:39:23.702Z,62.76
2022-12-01T09:40:23.711Z,64.96
2022-12-01T09:41:23.689Z,65.73
2022-12-01T09:42:23.699Z,63.58
2022-12-01T09:43:23.672Z,63.83
2022-12-01T09:44:23.672Z,63.81
2022-12-01T09:45:23.652Z,66.43
2022-12-01T09:46:23.675Z,64.66
2022-12-01T09:47:23.667Z,66.42
2022-12-01T09:48:23.640Z,66.05
2022-12-01T09:49:23.629Z,64.43
2022-12-01T09:50:23.616Z,68.47
2022-12-01T09:51:23.604Z,65.06
2022-12-01T09:52:23.599Z,64.01
2022-12-01T09:53:23.619Z,65.45
2022-12-01T09:54:23.585Z,67.55
2022-12-01T09:55:23.570Z,65.25
2022-12-01T09:56:23.568Z,66.96
2022-12-01T09:57:23.560Z,66.97
2022-12-01T09:58:23.578Z,64.13
2022-12-01T09:59:23.551Z,63.39
2022-12-01T10:00:23.539Z,67.04
2022-12-01T10:01:27.223Z,60.82
2022-12-01T10:02:24.567Z,61.86
2022-12-01T10:03:23.533Z,66.29
2022-12-01T10:04:23.508Z,63.67
2022-12-01T10:05:23.575Z,63.49
2022-12-01T10:06:28.134Z,68.65
2022-12-01T10:07:25.520Z,64.80
2022-12-01T10:08:26.927Z,65.89
2022-12-01T10:09:24.470Z,67.73
2022-12-01T10:10:23.495Z,66.92
2022-12-01T10:11:23.455Z,64.05
2022-12-01T10:12:23.440Z,65.39
2022-12-01T10:13:23.458Z,61.46
2022-12-01T10:14:23.426Z,62.33
2022-12-01T10:15:23.414Z,64.63
2022-12-01T10:16:23.431Z,68.06
2022-12-01T10:17:23.401Z,63.35
2022-12-01T10:18:23.407Z,64.83
2022-12-01T10:19:23.377Z,61.47
2022-12-01T10:20:23.415Z,65.06
2022-12-01T10:21:23.370Z,70.36
2022-12-01T10:22:23.359Z,66.35
2022-12-01T10:23:23.379Z,65.29
2022-12-01T10:24:23.348Z,66.91
2022-12-01T10:25:23.331Z,58.94
2022-12-01T10:26:23.324Z,64.01
2022-12-01T10:27:23.308Z,67.07
2022-12-01T10:28:24.338Z,65.05
2022-12-01T10:29:23.303Z,65.91
2022-12-01T10:30:23.352Z,69.21
2022-12-01T10:31:23.366Z,68.52
2022-12-01T10:32:23.279Z,67.34
2022-12-01T10:33:23.315Z,63.83
2022-12-01T10:34:23.271Z,65.33
2022-12-01T10:35:23.263Z,66.74
2022-12-01T10:36:23.254Z,63.51
2022-12-01T10:37:23.258Z,65.28
2022-12-01T10:38:23.353Z,65.57
2022-12-01T10:39:23.228Z,64.75
2022-12-01T10:40:23.296Z,67.20
2022-12-01T10:41:23.221Z,64.94
2022-12-01T10:42:23.205Z,67.42
2022-12-01T10:43:23.223Z,66.31
2022-12-01T10:44:23.183Z,63.50
2022-12-01T10:45:23.181Z,69.07
2022-12-01T10:46:23.236Z,66.13
2022-12-01T10:47:23.166Z,65.13
2022-12-01T10:48:23.186Z,62.23
2022-12-01T10:49:23.162Z,67.92
2022-12-01T10:50:23.148Z,66.86
2022-12-01T10:51:23.134Z,69.38
2022-12-01T10:52:23.127Z,64.63
2022-12-01T10:53:23.175Z,67.34
2022-12-01T10:54:23.117Z,66.62
2022-12-01T10:55:23.126Z,64.40
2022-12-01T10:56:23.094Z,67.81
2022-12-01T10:57:23.089Z,66.76
2022-12-01T10:58:23.120Z,64.39
2022-12-01T10:59:23.070Z,62.37
2022-12-01T11:00:57.418Z,65.73
2022-12-01T11:01:25.148Z,66.40
2022-12-01T11:02:23.286Z,63.61
2022-12-01T11:03:23.232Z,64.48
2022-12-01T11:04:23.056Z,65.23
2022-12-01T11:05:23.020Z,69.20
2022-12-01T11:06:23.017Z,69.35
2022-12-01T11:07:23.056Z,63.73
2022-12-01T11:08:23.015Z,68.65
2022-12-01T11:09:26.425Z,65.00
2022-12-01T11:10:23.987Z,69.90
2022-12-01T11:11:22.975Z,71.35
2022-12-01T11:12:24.028Z,68.04
2022-12-01T11:13:22.963Z,68.87
2022-12-01T11:14:22.981Z,65.05
2022-12-01T11:15:22.946Z,63.28
2022-12-01T11:16:22.984Z,68.76
2022-12-01T11:17:22.933Z,64.48
2022-12-01T11:18:22.917Z,66.44
2022-12-01T11:19:27.227Z,63.93
2022-12-01T11:20:23.940Z,62.99
2022-12-01T11:21:22.907Z,68.82
2022-12-01T11:22:22.886Z,66.56
2022-12-01T11:23:22.881Z,64.89
2022-12-01T11:24:22.898Z,64.66
2022-12-01T11:25:22.866Z,66.77
2022-12-01T11:26:22.858Z,67.58
2022-12-01T11:27:22.850Z,69.68
2022-12-01T11:28:22.844Z,63.57
2022-12-01T11:29:22.852Z,64.79
2022-12-01T11:30:22.820Z,67.06
2022-12-01T11:31:25.329Z,64.65
2022-12-01T11:32:22.807Z,64.82
2022-12-01T11:33:22.799Z,64.60
2022-12-01T11:34:22.807Z,65.25
2022-12-01T11:35:22.781Z,67.06
2022-12-01T11:36:22.778Z,60.75
2022-12-01T11:37:22.768Z,64.80
2022-12-01T11:38:30.423Z,66.51
2022-12-01T11:39:24.777Z,66.07
2022-12-01T11:40:22.740Z,64.87
2022-12-01T11:41:22.732Z,65.95
2022-12-01T11:42:22.729Z,64.76
2022-12-01T11:43:22.719Z,66.30
2022-12-01T11:44:43.560Z,62.53
2022-12-01T11:45:24.875Z,65.55
2022-12-01T11:46:22.763Z,63.51
2022-12-01T11:47:24.330Z,68.71
2022-12-01T11:48:23.681Z,65.79
2022-12-01T11:49:22.694Z,67.73
2022-12-01T11:50:22.666Z,66.82
2022-12-01T11:51:22.654Z,65.61
2022-12-01T11:52:22.646Z,66.54
2022-12-01T11:53:22.642Z,68.89
2022-12-01T11:54:22.664Z,66.68
2022-12-01T11:55:22.627Z,64.84
2022-12-01T11:56:22.619Z,67.25
2022-12-01T11:57:37.917Z,67.28
2022-12-01T11:58:24.652Z,66.32
2022-12-01T11:59:22.628Z,68.18
2022-12-01T12:00:22.589Z,67.26
2022-12-01T12:01:22.583Z,65.66
2022-12-01T12:02:22.628Z,64.20
2022-12-01T12:03:22.616Z,64.64
2022-12-01T12:04:22.585Z,66.53
2022-12-01T12:05:22.561Z,63.23
2022-12-01T12:07:24.622Z,65.41
2022-12-01T12:08:22.525Z,66.15
2022-12-01T12:09:22.519Z,64.15
2022-12-01T12:10:22.565Z,63.46
2022-12-01T12:11:22.507Z,65.07
2022-12-01T12:12:22.492Z,68.93
2022-12-01T12:13:22.485Z,64.30
2022-12-01T12:14:22.475Z,64.39
2022-12-01T12:15:22.499Z,66.86
2022-12-01T12:16:22.463Z,65.34
2022-12-01T12:17:22.485Z,66.25
2022-12-01T12:18:22.446Z,64.22
2022-12-01T12:19:29.000Z,72.67
2022-12-01T12:20:24.452Z,65.77
2022-12-01T12:21:22.420Z,66.09
2022-12-01T12:22:22.414Z,63.42
2022-12-01T12:23:22.408Z,64.85
2022-12-01T12:24:22.401Z,65.58
2022-12-01T12:25:22.418Z,66.67
2022-12-01T12:26:22.410Z,68.11
2022-12-01T12:27:22.371Z,64.33
2022-12-01T12:28:22.366Z,63.91
2022-12-01T12:29:22.365Z,67.24
2022-12-01T12:30:22.378Z,66.84
2022-12-01T12:31:22.369Z,66.75
2022-12-01T12:32:22.338Z,64.58
2022-12-01T12:33:22.327Z,65.00
2022-12-01T12:34:22.323Z,66.89
2022-12-01T12:35:22.337Z,65.52
2022-12-01T12:36:22.316Z,64.52
2022-12-01T12:37:24.819Z,66.78
2022-12-01T12:38:22.300Z,69.27
2022-12-01T12:39:22.285Z,64.73
2022-12-01T12:40:22.356Z,66.29
2022-12-01T12:41:22.273Z,69.31
2022-12-01T12:42:22.258Z,66.41
2022-12-01T12:43:22.247Z,66.73
2022-12-01T12:44:22.245Z,66.84
2022-12-01T12:45:22.263Z,66.49
2022-12-01T12:46:22.379Z,66.00
2022-12-01T12:47:22.248Z,67.78
2022-12-01T12:48:22.226Z,66.41
2022-12-01T12:49:22.216Z,67.54
2022-12-01T12:50:22.218Z,65.53
2022-12-01T12:51:22.185Z,66.81
2022-12-01T12:52:22.178Z,67.13
2022-12-01T12:53:22.175Z,64.58
2022-12-01T12:54:22.251Z,68.25